Time;durP1;ratioP1;P1;durP2;ratioP2;P2;SDS_P1;SDS_P2;PMS_P1;PMS_P2;Temp;Humidity;BMP_temperature;BMP_pressure;BME280_temperature;BME280_humidity;BME280_pressure;Samples;Min_cycle;Max_cycle;Signal;HPM_P1;HPM_P2
2023/05/06 00:01:17;;;;;;;7.75;6.82;;;13.90;99.90;;;;;;5039679;28;20040;-33
2023/05/06 00:03:42;;;;;;;7.60;6.80;;;13.90;99.90;;;;;;5039783;28;20409;-33
2023/05/06 00:06:08;;;;;;;7.18;6.47;;;14.00;99.90;;;;;;5040476;28;20059;-34
2023/05/06 00:08:34;;;;;;;8.32;7.40;;;14.00;99.90;;;;;;5038097;28;20032;-33
2023/05/06 00:11:00;;;;;;;7.68;6.63;;;14.00;99.90;;;;;;5040489;28;20036;-34
2023/05/06 00:13:25;;;;;;;8.57;6.78;;;13.90;99.90;;;;;;5039374;28;20611;-34
2023/05/06 00:15:51;;;;;;;8.02;6.70;;;14.00;99.90;;;;;;5039817;28;20025;-33
2023/05/06 00:18:16;;;;;;;7.35;6.63;;;14.00;99.90;;;;;;5039605;28;20047;-34
2023/05/06 00:20:42;;;;;;;6.53;5.93;;;14.00;99.90;;;;;;5036543;28;20033;-34
2023/05/06 00:23:08;;;;;;;7.32;6.20;;;14.00;99.90;;;;;;5036790;28;20022;-34
2023/05/06 00:25:33;;;;;;;8.60;7.35;;;14.10;99.90;;;;;;5042838;28;20033;-33
2023/05/06 00:27:59;;;;;;;8.02;7.22;;;14.00;99.90;;;;;;5042352;28;20119;-35
2023/05/06 00:30:24;;;;;;;8.38;7.22;;;14.10;99.90;;;;;;5041975;28;20063;-34
2023/05/06 00:32:50;;;;;;;8.95;7.75;;;14.00;99.90;;;;;;5043157;28;20028;-34
2023/05/06 00:35:16;;;;;;;7.78;6.78;;;14.00;99.90;;;;;;5043808;28;20040;-34
2023/05/06 00:37:45;;;;;;;9.27;7.70;;;14.00;99.90;;;;;;5042658;28;20036;-33
2023/05/06 00:40:11;;;;;;;8.15;7.25;;;14.00;99.90;;;;;;5043569;28;20079;-33
2023/05/06 00:42:36;;;;;;;8.32;7.28;;;14.00;99.90;;;;;;5040878;28;20032;-34
2023/05/06 00:45:02;;;;;;;8.88;7.50;;;13.90;99.90;;;;;;5043231;28;20039;-33
2023/05/06 00:47:28;;;;;;;10.48;7.93;;;13.90;99.90;;;;;;5042948;28;20025;-33
2023/05/06 00:49:54;;;;;;;9.95;7.80;;;13.90;99.90;;;;;;5042316;28;20051;-34
2023/05/06 00:52:20;;;;;;;10.50;8.88;;;13.80;99.90;;;;;;5042855;28;20021;-34
2023/05/06 00:54:46;;;;;;;9.60;7.93;;;13.80;99.90;;;;;;5042359;28;20060;-33
2023/05/06 00:57:12;;;;;;;8.30;7.40;;;13.70;99.90;;;;;;5042653;28;20100;-33
2023/05/06 00:59:38;;;;;;;9.05;8.10;;;13.60;99.90;;;;;;5042562;28;20030;-33
2023/05/06 01:02:04;;;;;;;9.02;8.13;;;13.60;99.90;;;;;;5042803;28;20032;-34
2023/05/06 01:04:30;;;;;;;10.88;8.80;;;13.50;99.90;;;;;;5042031;28;20035;-34
2023/05/06 01:07:01;;;;;;;9.80;8.23;;;13.50;99.90;;;;;;5042928;28;20028;-34
2023/05/06 01:09:44;;;;;;;9.32;8.43;;;13.50;99.90;;;;;;5041903;28;20136;-34
2023/05/06 01:12:25;;;;;;;9.10;8.15;;;13.50;99.90;;;;;;5042063;28;20749;-34
2023/05/06 01:15:15;;;;;;;10.15;8.73;;;13.50;99.90;;;;;;5042353;28;20480;-33
2023/05/06 01:17:48;;;;;;;9.77;8.77;;;13.50;99.90;;;;;;5020297;28;20056;-33
2023/05/06 01:20:16;;;;;;;9.82;8.65;;;13.50;99.90;;;;;;5042188;28;20065;-35
2023/05/06 01:22:42;;;;;;;12.93;10.25;;;13.50;99.90;;;;;;5041812;28;20021;-33
2023/05/06 01:25:20;;;;;;;10.63;9.52;;;13.50;99.90;;;;;;5041586;28;20029;-33
2023/05/06 01:27:45;;;;;;;11.07;9.85;;;13.50;99.90;;;;;;5042790;28;20025;-35
2023/05/06 01:30:13;;;;;;;10.52;9.40;;;13.50;99.90;;;;;;5042377;28;20102;-34
2023/05/06 01:33:13;;;;;;;10.55;9.45;;;13.50;99.90;;;;;;5041886;28;20121;-34
2023/05/06 01:36:17;;;;;;;10.90;9.23;;;13.50;99.90;;;;;;5015806;28;20039;-35
2023/05/06 01:38:49;;;;;;;10.77;8.75;;;13.50;99.90;;;;;;5009545;28;20053;-34
2023/05/06 01:41:16;;;;;;;10.82;9.18;;;13.50;99.90;;;;;;5040250;28;20048;-35
2023/05/06 01:43:44;;;;;;;10.88;9.77;;;13.50;99.90;;;;;;5042208;28;20045;-34
2023/05/06 01:46:16;;;;;;;10.77;9.68;;;13.50;99.90;;;;;;5041056;28;20731;-33
2023/05/06 01:48:45;;;;;;;11.27;9.68;;;13.40;99.90;;;;;;5021887;28;20037;-33
2023/05/06 01:51:13;;;;;;;11.63;10.40;;;13.40;99.90;;;;;;5036589;28;20037;-34
2023/05/06 01:53:40;;;;;;;11.50;10.30;;;13.40;99.90;;;;;;5040342;28;20028;-33
2023/05/06 01:56:06;;;;;;;12.77;10.13;;;13.40;99.90;;;;;;5041602;28;20025;-33
2023/05/06 01:58:31;;;;;;;12.15;10.70;;;13.30;99.90;;;;;;5041707;28;20041;-33
2023/05/06 02:00:57;;;;;;;11.65;10.13;;;13.30;99.90;;;;;;5040879;28;20024;-33
2023/05/06 02:03:22;;;;;;;12.98;11.10;;;13.30;99.90;;;;;;5041530;28;20029;-33
2023/05/06 02:05:48;;;;;;;13.00;11.27;;;13.20;99.90;;;;;;5041847;28;20605;-34
2023/05/06 02:08:14;;;;;;;12.90;10.43;;;13.20;99.90;;;;;;5041493;28;20040;-34
2023/05/06 02:10:39;;;;;;;13.30;11.00;;;13.10;99.90;;;;;;5040702;28;20036;-33
2023/05/06 02:13:09;;;;;;;12.68;11.00;;;13.10;99.90;;;;;;5040440;28;20024;-34
2023/05/06 02:15:35;;;;;;;12.48;10.82;;;13.10;99.90;;;;;;5037588;28;20025;-33
2023/05/06 02:18:00;;;;;;;12.65;11.32;;;13.10;99.90;;;;;;5041602;28;20058;-33
2023/05/06 02:20:26;;;;;;;12.15;10.85;;;13.00;99.90;;;;;;5041717;28;20805;-33
2023/05/06 02:22:51;;;;;;;11.90;10.63;;;13.00;99.90;;;;;;5040617;28;20029;-34
2023/05/06 02:25:17;;;;;;;12.52;11.23;;;13.00;99.90;;;;;;5041099;28;20035;-32
2023/05/06 02:27:43;;;;;;;13.07;11.55;;;12.90;99.90;;;;;;5040895;28;20112;-34
2023/05/06 02:30:10;;;;;;;15.20;12.15;;;13.00;99.90;;;;;;5040344;28;20059;-34
2023/05/06 02:32:36;;;;;;;15.00;12.00;;;13.00;99.90;;;;;;5040166;28;20187;-33
2023/05/06 02:35:02;;;;;;;13.75;12.07;;;12.90;99.90;;;;;;5039383;28;20456;-32
2023/05/06 02:37:27;;;;;;;15.30;13.23;;;12.90;99.90;;;;;;5040578;28;20851;-33
2023/05/06 02:39:53;;;;;;;14.43;12.55;;;12.90;99.90;;;;;;5041256;28;20036;-35
2023/05/06 02:42:20;;;;;;;13.43;12.02;;;12.80;99.90;;;;;;5039439;28;20108;-33
2023/05/06 02:44:45;;;;;;;15.43;12.77;;;12.80;99.90;;;;;;5041039;28;20039;-34
2023/05/06 02:47:11;;;;;;;14.00;12.55;;;12.80;99.90;;;;;;5040570;28;20025;-34
2023/05/06 02:49:39;;;;;;;14.45;12.88;;;12.80;99.90;;;;;;5033246;28;20045;-33
2023/05/06 02:52:05;;;;;;;14.48;12.38;;;12.80;99.90;;;;;;5041266;28;20033;-33
2023/05/06 02:54:36;;;;;;;15.27;12.93;;;12.70;99.90;;;;;;5040747;28;20094;-34
2023/05/06 02:57:02;;;;;;;16.98;13.80;;;12.80;99.90;;;;;;5040199;28;20483;-33
2023/05/06 02:59:27;;;;;;;15.82;12.70;;;12.70;99.90;;;;;;5040168;28;20033;-34
2023/05/06 03:01:53;;;;;;;14.95;12.95;;;12.70;99.90;;;;;;5041106;28;20448;-34
2023/05/06 03:04:18;;;;;;;15.35;13.40;;;12.70;99.90;;;;;;5038191;28;20495;-33
2023/05/06 03:06:44;;;;;;;15.68;13.68;;;12.70;99.90;;;;;;5039638;28;20031;-35
2023/05/06 03:09:13;;;;;;;13.90;12.38;;;12.70;99.90;;;;;;5039546;28;20087;-33
2023/05/06 03:11:39;;;;;;;14.15;12.65;;;12.60;99.90;;;;;;5038444;28;20390;-33
2023/05/06 03:14:04;;;;;;;14.70;12.15;;;12.70;99.90;;;;;;5040254;28;20036;-34
2023/05/06 03:16:30;;;;;;;13.57;12.18;;;12.60;99.90;;;;;;5039589;28;20033;-34
2023/05/06 03:18:55;;;;;;;14.95;11.75;;;12.60;99.90;;;;;;5037279;28;20037;-33
2023/05/06 03:21:21;;;;;;;12.75;10.88;;;12.60;99.90;;;;;;5036257;28;20079;-33
2023/05/06 03:23:46;;;;;;;14.55;12.98;;;12.60;99.90;;;;;;5039952;28;20044;-34
2023/05/06 03:26:12;;;;;;;14.93;12.45;;;12.60;99.90;;;;;;5039593;28;20025;-33
2023/05/06 03:28:44;;;;;;;13.75;12.23;;;12.60;99.90;;;;;;5038970;28;20458;-34
2023/05/06 03:31:10;;;;;;;12.93;11.50;;;12.50;99.90;;;;;;5039438;28;20126;-33
2023/05/06 03:33:38;;;;;;;13.52;11.85;;;12.50;99.90;;;;;;5039802;28;20055;-34
2023/05/06 03:36:07;;;;;;;14.02;12.40;;;12.50;99.90;;;;;;5039097;28;20351;-34
2023/05/06 03:38:32;;;;;;;14.45;12.27;;;12.50;99.90;;;;;;5038388;28;20048;-33
2023/05/06 03:40:58;;;;;;;13.75;11.75;;;12.50;99.90;;;;;;5040522;28;20032;-34
2023/05/06 03:43:24;;;;;;;13.70;12.20;;;12.40;99.90;;;;;;5039047;28;20025;-34
2023/05/06 03:45:49;;;;;;;13.25;11.23;;;12.40;99.90;;;;;;5039739;28;20429;-34
2023/05/06 03:48:15;;;;;;;13.18;11.63;;;12.40;99.90;;;;;;5040401;28;20108;-34
2023/05/06 03:50:41;;;;;;;13.68;11.80;;;12.40;99.90;;;;;;5039160;28;20949;-35
2023/05/06 03:53:06;;;;;;;15.23;11.98;;;12.40;99.90;;;;;;5040126;28;20040;-34
2023/05/06 03:55:32;;;;;;;16.83;12.98;;;12.40;99.90;;;;;;5040183;28;20427;-33
2023/05/06 03:57:58;;;;;;;15.77;11.90;;;12.40;99.90;;;;;;5044146;28;20516;-33
2023/05/06 04:00:23;;;;;;;15.32;13.32;;;12.30;99.90;;;;;;5042338;28;20083;-34
2023/05/06 04:02:49;;;;;;;14.65;12.30;;;12.30;99.90;;;;;;5043979;28;20059;-34
2023/05/06 04:05:15;;;;;;;14.85;13.30;;;12.30;99.90;;;;;;5043321;28;20551;-32
2023/05/06 04:07:43;;;;;;;15.55;12.88;;;12.30;99.90;;;;;;5042814;28;20116;-34
2023/05/06 04:10:12;;;;;;;13.88;12.40;;;12.30;99.90;;;;;;5044389;28;20150;-33
2023/05/06 04:12:37;;;;;;;13.38;11.95;;;12.40;99.90;;;;;;5043519;28;20033;-34
2023/05/06 04:15:03;;;;;;;15.20;12.52;;;12.30;99.90;;;;;;5043057;28;20029;-34
2023/05/06 04:17:31;;;;;;;14.30;12.80;;;12.30;99.90;;;;;;5043218;28;20021;-33
2023/05/06 04:19:57;;;;;;;15.18;12.20;;;12.30;99.90;;;;;;5043761;28;20052;-34
2023/05/06 04:22:25;;;;;;;13.40;11.30;;;12.30;99.90;;;;;;5042364;28;20466;-34
2023/05/06 04:24:51;;;;;;;13.93;12.43;;;12.30;99.90;;;;;;5043660;28;20687;-33
2023/05/06 04:27:16;;;;;;;17.30;13.20;;;12.30;99.90;;;;;;5044005;28;20025;-35
2023/05/06 04:29:42;;;;;;;14.90;12.23;;;12.40;99.90;;;;;;5028186;28;20025;-34
2023/05/06 04:32:10;;;;;;;16.08;13.63;;;12.40;99.90;;;;;;5043674;28;20021;-34
2023/05/06 04:34:36;;;;;;;18.00;13.55;;;12.40;99.90;;;;;;5043347;28;20057;-33
2023/05/06 04:37:01;;;;;;;18.15;14.77;;;12.50;99.90;;;;;;5043676;28;20124;-33
2023/05/06 04:39:27;;;;;;;19.90;14.73;;;12.50;99.90;;;;;;5042630;28;20721;-34
2023/05/06 04:41:53;;;;;;;20.30;14.02;;;12.60;99.90;;;;;;5042759;28;20068;-39
2023/05/06 04:44:18;;;;;;;33.35;13.77;;;12.60;99.90;;;;;;5042834;28;20833;-35
2023/05/06 04:46:47;;;;;;;31.30;13.40;;;12.70;99.90;;;;;;5043321;28;20025;-33
2023/05/06 04:49:12;;;;;;;18.80;12.57;;;12.80;99.90;;;;;;5041206;28;20056;-33
2023/05/06 04:51:38;;;;;;;39.83;12.32;;;12.80;99.90;;;;;;5041273;28;20025;-34
2023/05/06 04:54:04;;;;;;;25.20;11.90;;;12.90;99.90;;;;;;5041848;28;20056;-35
2023/05/06 04:56:29;;;;;;;39.45;11.82;;;13.00;99.90;;;;;;5040212;28;20136;-34
2023/05/06 04:58:55;;;;;;;26.15;11.55;;;13.00;99.90;;;;;;5038273;28;20550;-34
2023/05/06 05:01:20;;;;;;;29.10;12.00;;;13.00;99.90;;;;;;5031145;28;20021;-34
2023/05/06 05:03:52;;;;;;;30.25;10.73;;;13.10;99.90;;;;;;5041593;28;20763;-35
2023/05/06 05:06:20;;;;;;;24.23;10.82;;;13.10;99.90;;;;;;5041691;28;20025;-33
2023/05/06 05:08:46;;;;;;;30.42;10.68;;;13.10;99.90;;;;;;5041504;28;20033;-34
2023/05/06 05:11:14;;;;;;;28.95;10.32;;;13.20;99.90;;;;;;5040579;28;20028;-33
2023/05/06 05:13:40;;;;;;;19.33;10.20;;;13.20;99.90;;;;;;5040102;28;20047;-33
2023/05/06 05:16:05;;;;;;;19.35;10.50;;;13.20;99.90;;;;;;5041159;28;20021;-34
2023/05/06 05:18:31;;;;;;;39.72;11.00;;;13.30;99.90;;;;;;5039894;28;20088;-33
2023/05/06 05:20:56;;;;;;;44.17;11.10;;;13.30;99.90;;;;;;5040022;28;20112;-33
2023/05/06 05:23:22;;;;;;;32.42;11.75;;;13.30;99.90;;;;;;5041453;28;20025;-35
2023/05/06 05:25:50;;;;;;;21.98;10.27;;;13.30;99.90;;;;;;5040884;28;20104;-34
2023/05/06 05:28:16;;;;;;;42.72;10.27;;;13.30;99.90;;;;;;5041729;28;20021;-40
2023/05/06 05:30:41;;;;;;;25.23;10.35;;;13.30;99.90;;;;;;5041174;28;20052;-33
2023/05/06 05:33:07;;;;;;;14.52;10.45;;;13.40;99.90;;;;;;5040922;28;20090;-34
2023/05/06 05:35:32;;;;;;;20.27;10.55;;;13.40;99.90;;;;;;5040168;28;20033;-34
2023/05/06 05:38:01;;;;;;;19.88;10.30;;;13.40;99.90;;;;;;5041001;28;20448;-34
2023/05/06 05:40:26;;;;;;;14.85;9.75;;;13.50;99.90;;;;;;5040633;28;20047;-33
2023/05/06 05:42:52;;;;;;;12.85;10.65;;;13.50;99.90;;;;;;5041503;28;20017;-34
2023/05/06 05:45:19;;;;;;;15.50;11.02;;;13.50;99.90;;;;;;5040221;28;20022;-34
2023/05/06 05:47:45;;;;;;;11.45;10.35;;;13.50;99.90;;;;;;5040647;28;20107;-34
2023/05/06 05:51:14;;;;;;;12.25;10.55;;;13.60;99.90;;;;;;5098286;27;20520;-34
2023/05/06 05:53:39;;;;;;;12.40;10.63;;;13.70;99.90;;;;;;5096734;28;20138;-33
2023/05/06 05:56:05;;;;;;;11.40;10.23;;;13.70;99.90;;;;;;5098295;28;20144;-34
2023/05/06 05:58:30;;;;;;;15.18;10.90;;;13.80;99.90;;;;;;5097276;28;20068;-34
2023/05/06 06:00:56;;;;;;;14.57;9.90;;;13.80;99.90;;;;;;5097495;28;20078;-34
2023/05/06 06:03:21;;;;;;;13.05;8.95;;;13.90;99.90;;;;;;5097512;28;20024;-32
2023/05/06 06:05:48;;;;;;;17.02;10.35;;;14.00;99.90;;;;;;5098085;28;20042;-35
2023/05/06 06:08:16;;;;;;;15.80;9.63;;;14.10;99.90;;;;;;5097546;28;20059;-34
2023/05/06 06:10:41;;;;;;;14.20;10.10;;;14.20;99.90;;;;;;5098063;28;20156;-34
2023/05/06 06:13:07;;;;;;;11.50;10.40;;;14.40;99.90;;;;;;5093101;28;20050;-35
2023/05/06 06:15:33;;;;;;;11.60;10.50;;;14.50;99.90;;;;;;5093964;28;20487;-35
2023/05/06 06:17:58;;;;;;;11.38;10.18;;;14.70;99.90;;;;;;5098035;28;20489;-34
2023/05/06 06:20:24;;;;;;;11.45;10.27;;;14.70;99.90;;;;;;5096445;28;20059;-34
2023/05/06 06:22:49;;;;;;;12.23;10.93;;;14.70;99.90;;;;;;5097784;28;20066;-33
2023/05/06 06:25:15;;;;;;;12.80;11.48;;;14.70;99.90;;;;;;5097426;28;20027;-34
2023/05/06 06:27:40;;;;;;;11.88;10.68;;;14.80;99.90;;;;;;5096300;28;20028;-34
2023/05/06 06:30:07;;;;;;;13.40;12.10;;;14.90;99.90;;;;;;5097392;28;20054;-33
2023/05/06 06:32:32;;;;;;;12.70;11.45;;;14.90;99.90;;;;;;5096527;28;20093;-34
2023/05/06 06:34:58;;;;;;;13.50;11.50;;;14.90;99.90;;;;;;5096718;28;20028;-33
2023/05/06 06:37:23;;;;;;;11.85;10.65;;;14.80;99.90;;;;;;5096142;28;20559;-35
2023/05/06 06:39:49;;;;;;;12.15;10.95;;;14.70;99.90;;;;;;5096332;28;20039;-34
2023/05/06 06:42:14;;;;;;;11.48;10.35;;;14.70;99.90;;;;;;5096336;28;20936;-32
2023/05/06 06:44:40;;;;;;;11.57;10.48;;;14.70;99.90;;;;;;5096526;28;20027;-35
2023/05/06 06:47:05;;;;;;;11.98;10.75;;;14.70;99.90;;;;;;5094555;28;20066;-34
2023/05/06 06:49:31;;;;;;;11.38;10.25;;;14.80;99.90;;;;;;5083240;28;20036;-34
2023/05/06 06:52:00;;;;;;;11.48;10.30;;;14.80;99.90;;;;;;5096993;28;20451;-33
2023/05/06 06:54:25;;;;;;;10.82;9.75;;;14.80;99.90;;;;;;5093741;28;20028;-33
2023/05/06 06:56:57;;;;;;;11.07;10.02;;;14.90;99.90;;;;;;5094084;28;20056;-34
2023/05/06 06:59:23;;;;;;;11.70;10.35;;;14.90;99.90;;;;;;5095532;28;20031;-34
2023/05/06 07:01:51;;;;;;;11.38;10.32;;;14.90;99.90;;;;;;5083809;28;20584;-35
2023/05/06 07:04:16;;;;;;;11.18;10.18;;;15.00;99.90;;;;;;5061012;28;20044;-33
2023/05/06 07:06:42;;;;;;;11.50;10.30;;;15.00;99.90;;;;;;5076832;28;20031;-34
2023/05/06 07:09:07;;;;;;;11.65;10.48;;;15.10;99.90;;;;;;5083140;28;20028;-34
2023/05/06 07:11:33;;;;;;;9.98;9.02;;;15.10;99.90;;;;;;5081508;28;20031;-34
2023/05/06 07:13:58;;;;;;;10.57;9.57;;;15.20;99.90;;;;;;5083435;28;20027;-35
2023/05/06 07:16:24;;;;;;;11.10;10.00;;;15.30;99.90;;;;;;5080980;28;20152;-33
2023/05/06 07:18:52;;;;;;;10.85;9.85;;;15.30;99.90;;;;;;5083049;28;20020;-34
2023/05/06 07:21:18;;;;;;;10.63;9.60;;;15.30;99.90;;;;;;5082302;28;20527;-34
2023/05/06 07:23:44;;;;;;;10.98;9.90;;;15.40;99.90;;;;;;5082496;28;20028;-34
2023/05/06 07:26:09;;;;;;;10.55;9.07;;;15.50;99.90;;;;;;5082554;28;20057;-33
2023/05/06 07:28:35;;;;;;;10.18;9.18;;;15.50;99.90;;;;;;5081972;28;20023;-33
2023/05/06 07:31:00;;;;;;;10.90;9.80;;;15.60;99.90;;;;;;5082709;28;20035;-34
2023/05/06 07:33:26;;;;;;;9.68;8.77;;;15.70;99.90;;;;;;5081629;28;20024;-34
2023/05/06 07:35:57;;;;;;;10.50;9.40;;;15.80;99.90;;;;;;5071364;28;20119;-33
2023/05/06 07:38:23;;;;;;;10.73;9.70;;;15.90;99.90;;;;;;5078966;28;20015;-34
2023/05/06 07:40:50;;;;;;;10.30;9.30;;;16.00;99.90;;;;;;5070195;28;20164;-34
2023/05/06 07:43:15;;;;;;;10.35;9.35;;;16.10;99.90;;;;;;5079045;28;20060;-33
2023/05/06 07:45:44;;;;;;;10.38;9.38;;;16.20;99.90;;;;;;5063031;28;20158;-33
2023/05/06 07:48:10;;;;;;;11.35;9.88;;;16.30;99.90;;;;;;5077254;28;20028;-34
2023/05/06 07:50:35;;;;;;;10.70;9.50;;;16.50;99.90;;;;;;5078773;28;20055;-35
2023/05/06 07:53:07;;;;;;;10.27;9.27;;;16.50;99.90;;;;;;5081703;28;20020;-33
2023/05/06 07:55:33;;;;;;;10.05;9.05;;;16.60;99.90;;;;;;5079372;28;20047;-34
2023/05/06 07:57:58;;;;;;;10.07;9.15;;;16.60;99.90;;;;;;5078790;28;20955;-34
2023/05/06 08:00:24;;;;;;;10.32;8.90;;;16.70;99.90;;;;;;5079049;28;20028;-34
2023/05/06 08:02:49;;;;;;;11.00;8.88;;;16.80;99.90;;;;;;5081629;28;20032;-35
2023/05/06 08:05:16;;;;;;;9.68;8.77;;;16.80;99.90;;;;;;5080792;28;20730;-34
2023/05/06 08:07:41;;;;;;;10.38;8.27;;;16.90;99.90;;;;;;5080353;28;20024;-34
2023/05/06 08:10:10;;;;;;;10.93;9.38;;;17.00;99.90;;;;;;5081126;28;20031;-35
2023/05/06 08:12:36;;;;;;;9.60;8.60;;;17.10;99.90;;;;;;5078800;28;20024;-34
2023/05/06 08:15:02;;;;;;;10.45;9.45;;;17.10;99.90;;;;;;5078670;28;20665;-34
2023/05/06 08:17:28;;;;;;;10.32;9.32;;;17.10;99.90;;;;;;5081753;28;20051;-41
2023/05/06 08:19:54;;;;;;;10.98;9.15;;;17.20;99.90;;;;;;5080404;28;20793;-35
2023/05/06 08:22:23;;;;;;;10.60;9.50;;;17.20;99.90;;;;;;5080573;28;20024;-33
2023/05/06 08:24:48;;;;;;;9.98;9.02;;;17.20;99.90;;;;;;5079640;28;20039;-33
2023/05/06 08:27:14;;;;;;;9.73;8.82;;;17.30;99.90;;;;;;5081119;28;20032;-33
2023/05/06 08:29:39;;;;;;;9.88;8.88;;;17.40;99.90;;;;;;5078335;28;20063;-34
2023/05/06 08:32:05;;;;;;;9.95;8.88;;;17.50;99.90;;;;;;5080851;28;20039;-34
2023/05/06 08:34:30;;;;;;;10.85;9.75;;;17.50;99.90;;;;;;5078533;28;20028;-34
2023/05/06 08:36:56;;;;;;;9.82;8.77;;;17.60;99.90;;;;;;5081074;28;20062;-34
2023/05/06 08:39:22;;;;;;;11.40;9.43;;;17.70;99.90;;;;;;5080543;28;20764;-34
2023/05/06 08:41:51;;;;;;;9.60;8.70;;;17.70;99.90;;;;;;5080137;28;20066;-35
2023/05/06 08:44:21;;;;;;;10.60;9.60;;;17.80;99.90;;;;;;5080197;28;20058;-34
2023/05/06 08:46:47;;;;;;;9.65;8.75;;;17.90;99.90;;;;;;5080163;28;20059;-34
2023/05/06 08:49:13;;;;;;;10.85;9.32;;;18.00;99.90;;;;;;5079193;28;20197;-34
2023/05/06 08:51:45;;;;;;;9.95;8.95;;;18.10;99.90;;;;;;5080969;28;20402;-34
2023/05/06 08:54:12;;;;;;;10.98;9.45;;;18.20;99.90;;;;;;5081097;28;20016;-35
2023/05/06 08:56:39;;;;;;;10.70;9.15;;;18.30;99.90;;;;;;5078932;28;20107;-33
2023/05/06 08:59:08;;;;;;;10.13;8.90;;;18.30;99.90;;;;;;5081041;28;20613;-34
2023/05/06 09:01:34;;;;;;;10.65;9.55;;;18.40;99.90;;;;;;5080128;28;20039;-34
2023/05/06 09:04:02;;;;;;;10.30;9.10;;;18.50;99.90;;;;;;5078131;28;20071;-33
2023/05/06 09:06:28;;;;;;;10.40;9.40;;;18.60;99.90;;;;;;5078547;28;20024;-35
2023/05/06 09:08:53;;;;;;;10.20;9.20;;;18.60;99.90;;;;;;5079140;28;20078;-34
2023/05/06 09:11:30;;;;;;;9.77;8.55;;;18.70;99.90;;;;;;5079088;28;20099;-34
2023/05/06 09:14:14;;;;;;;10.82;9.30;;;18.80;99.90;;;;;;5081509;28;20030;-36
2023/05/06 09:16:49;;;;;;;11.10;9.38;;;18.80;99.90;;;;;;5079346;28;20038;-33
2023/05/06 09:19:16;;;;;;;10.35;9.23;;;19.00;99.90;;;;;;5079443;28;20032;-34
2023/05/06 09:21:44;;;;;;;9.43;8.43;;;19.00;99.90;;;;;;5079654;28;20572;-34
2023/05/06 09:24:14;;;;;;;10.68;9.10;;;19.10;99.90;;;;;;5080376;28;20126;-34
2023/05/06 09:26:42;;;;;;;10.75;9.57;;;19.10;99.90;;;;;;5073053;28;20024;-33
2023/05/06 09:29:08;;;;;;;10.93;9.20;;;19.20;99.90;;;;;;5060918;28;20044;-34
2023/05/06 09:31:40;;;;;;;12.20;9.07;;;19.20;99.90;;;;;;5072764;28;20374;-35
2023/05/06 09:34:06;;;;;;;13.77;9.50;;;19.20;99.90;;;;;;5079887;28;20089;-33
2023/05/06 09:36:31;;;;;;;10.57;8.38;;;19.20;99.90;;;;;;5077956;28;20039;-34
2023/05/06 09:38:57;;;;;;;11.02;9.55;;;19.20;99.90;;;;;;5079657;28;20028;-33
2023/05/06 09:41:24;;;;;;;14.35;9.45;;;19.10;99.90;;;;;;5078087;28;20023;-35
2023/05/06 09:43:55;;;;;;;12.55;8.75;;;19.00;99.90;;;;;;5080068;28;20532;-34
2023/05/06 09:46:21;;;;;;;8.48;6.90;;;18.90;99.90;;;;;;5077692;28;20107;-34
2023/05/06 09:48:52;;;;;;;8.85;7.95;;;18.80;99.90;;;;;;5079463;28;20040;-32
2023/05/06 09:51:19;;;;;;;7.55;6.32;;;18.80;99.90;;;;;;5079171;28;20024;-34
2023/05/06 09:53:45;;;;;;;8.73;7.50;;;18.70;99.90;;;;;;5079517;28;20076;-33
2023/05/06 09:56:11;;;;;;;10.57;7.35;;;18.70;99.90;;;;;;5080159;28;20016;-34
2023/05/06 09:58:37;;;;;;;8.38;7.13;;;18.70;99.90;;;;;;5079022;28;20609;-33
2023/05/06 10:01:05;;;;;;;7.80;6.47;;;18.70;99.90;;;;;;5077973;28;20090;-32
2023/05/06 10:03:32;;;;;;;10.52;7.10;;;18.70;99.90;;;;;;5075570;28;20095;-34
2023/05/06 10:05:59;;;;;;;7.38;6.30;;;18.80;99.90;;;;;;5078991;28;20487;-34
2023/05/06 10:08:25;;;;;;;7.93;6.03;;;18.80;99.90;;;;;;5079247;28;20070;-34
2023/05/06 10:10:52;;;;;;;7.90;5.20;;;18.90;99.90;;;;;;5079675;28;20497;-34
2023/05/06 10:13:20;;;;;;;6.45;4.53;;;19.00;99.90;;;;;;5079025;28;20048;-33
2023/05/06 10:15:48;;;;;;;4.47;3.50;;;19.10;99.90;;;;;;5076044;28;20036;-34
2023/05/06 10:18:18;;;;;;;6.57;4.93;;;19.20;99.90;;;;;;5078636;28;20165;-34
2023/05/06 10:20:45;;;;;;;5.75;5.00;;;19.40;99.90;;;;;;5079008;28;20039;-34
2023/05/06 10:23:41;;;;;;;7.85;4.80;;;19.50;99.90;;;;;;5076246;28;20021;-34
2023/05/06 10:26:10;;;;;;;5.68;5.05;;;19.60;99.90;;;;;;5070520;28;20036;-32
2023/05/06 10:28:42;;;;;;;6.60;4.80;;;19.70;99.90;;;;;;5078985;28;20024;-33
2023/05/06 10:31:12;;;;;;;4.45;3.08;;;19.70;99.90;;;;;;5073953;28;20044;-34
2023/05/06 10:33:39;;;;;;;6.35;4.10;;;19.80;99.90;;;;;;5078793;28;20019;-33
2023/05/06 10:36:24;;;;;;;6.03;4.68;;;19.80;99.90;;;;;;5070495;28;20097;-34
2023/05/06 10:38:55;;;;;;;5.10;4.10;;;19.90;99.90;;;;;;5083467;28;20023;-35
2023/05/06 10:41:26;;;;;;;5.22;3.80;;;19.90;99.90;;;;;;5082879;28;20020;-34
2023/05/06 10:43:55;;;;;;;3.40;3.10;;;19.90;99.90;;;;;;5084169;28;20035;-34
2023/05/06 10:46:23;;;;;;;5.97;4.00;;;19.90;99.90;;;;;;5083829;28;20032;-35
2023/05/06 10:49:04;;;;;;;3.80;3.15;;;20.00;99.90;;;;;;5083045;28;20020;-34
2023/05/06 10:51:31;;;;;;;4.60;3.88;;;20.10;99.90;;;;;;5082133;28;20766;-34
2023/05/06 10:54:06;;;;;;;4.07;3.50;;;20.20;99.90;;;;;;5081435;28;20120;-35
2023/05/06 10:56:33;;;;;;;3.92;2.60;;;20.10;99.90;;;;;;5083202;28;20025;-34
2023/05/06 10:59:11;;;;;;;3.08;2.78;;;20.20;99.90;;;;;;5084108;28;20024;-34
2023/05/06 11:01:38;;;;;;;4.72;3.45;;;20.20;99.90;;;;;;5082664;28;20548;-34
2023/05/06 11:04:17;;;;;;;3.40;2.88;;;20.30;99.90;;;;;;5083800;28;20081;-34
2023/05/06 11:06:45;;;;;;;4.25;3.30;;;20.30;99.90;;;;;;5083149;28;20145;-35
2023/05/06 11:09:22;;;;;;;6.25;4.63;;;20.40;99.90;;;;;;5082217;28;20791;-34
2023/05/06 11:12:03;;;;;;;6.47;4.00;;;20.40;99.90;;;;;;5083167;28;20032;-33
2023/05/06 11:14:34;;;;;;;3.80;3.28;;;20.50;99.90;;;;;;5082702;28;20103;-35
2023/05/06 11:17:04;;;;;;;3.72;3.13;;;20.50;99.90;;;;;;5083182;28;20023;-35
2023/05/06 11:19:31;;;;;;;3.40;3.10;;;20.60;99.90;;;;;;5082951;28;20035;-37
2023/05/06 11:21:59;;;;;;;3.35;3.03;;;20.60;99.90;;;;;;5083296;28;20229;-35
2023/05/06 11:24:40;;;;;;;3.70;3.17;;;20.80;99.90;;;;;;5081685;28;20035;-34
2023/05/06 11:27:06;;;;;;;5.47;3.78;;;20.90;99.90;;;;;;5083262;28;20103;-35
2023/05/06 11:29:32;;;;;;;3.38;2.65;;;21.10;99.90;;;;;;5081783;28;20028;-34
2023/05/06 11:31:58;;;;;;;6.20;3.55;;;21.20;99.90;;;;;;5083198;28;20524;-34
2023/05/06 11:34:30;;;;;;;3.17;2.83;;;21.30;99.90;;;;;;5082534;28;20031;-34
2023/05/06 11:37:01;;;;;;;3.72;3.35;;;21.40;99.90;;;;;;5082466;28;20096;-33
2023/05/06 11:39:29;;;;;;;3.63;2.90;;;21.50;99.90;;;;;;5081517;28;20127;-34
2023/05/06 11:42:08;;;;;;;3.20;2.75;;;21.50;99.90;;;;;;5083234;28;20050;-35
2023/05/06 11:44:36;;;;;;;2.53;2.05;;;21.60;99.90;;;;;;5081693;28;20026;-34
2023/05/06 11:47:04;;;;;;;3.92;3.05;;;21.70;99.90;;;;;;5082594;28;20081;-35
2023/05/06 11:49:35;;;;;;;3.50;2.50;;;21.80;99.90;;;;;;5081601;28;20052;-35
2023/05/06 11:52:02;;;;;;;4.45;2.80;;;21.80;99.90;;;;;;5080695;28;20020;-35
2023/05/06 11:54:34;;;;;;;3.53;2.33;;;21.90;99.90;;;;;;5081985;28;20036;-34
2023/05/06 11:57:00;;;;;;;3.17;2.13;;;22.00;99.90;;;;;;5082127;28;20020;-34
2023/05/06 11:59:30;;;;;;;2.85;2.00;;;22.10;99.90;;;;;;5081457;28;20550;-35
2023/05/06 12:01:57;;;;;;;3.63;2.90;;;22.20;99.90;;;;;;5082753;28;20036;-35
2023/05/06 12:04:23;;;;;;;3.78;2.35;;;22.20;99.90;;;;;;5081899;28;20664;-34
2023/05/06 12:06:52;;;;;;;3.13;2.08;;;22.30;99.90;;;;;;5081203;28;20035;-34
2023/05/06 12:09:20;;;;;;;2.83;2.38;;;22.40;99.90;;;;;;5080696;28;20058;-34
2023/05/06 12:11:49;;;;;;;2.65;1.75;;;22.40;99.90;;;;;;5080674;28;20032;-35
2023/05/06 12:14:18;;;;;;;2.67;1.88;;;22.40;99.90;;;;;;5081109;28;20181;-34
2023/05/06 12:16:44;;;;;;;2.97;2.38;;;22.40;99.90;;;;;;5079038;28;20835;-34
2023/05/06 12:19:09;;;;;;;1.80;1.70;;;22.50;99.90;;;;;;5086903;28;20028;-34
2023/05/06 12:21:38;;;;;;;3.13;1.95;;;22.50;99.90;;;;;;5091302;28;20032;-35
2023/05/06 12:24:04;;;;;;;2.60;1.60;;;22.50;99.90;;;;;;5081795;28;20422;-34
2023/05/06 12:26:42;;;;;;;2.28;1.70;;;22.50;99.90;;;;;;5080086;28;20016;-34
2023/05/06 12:29:09;;;;;;;2.80;1.73;;;22.50;99.90;;;;;;5081126;28;20032;-34
2023/05/06 12:31:38;;;;;;;2.10;1.85;;;22.50;99.90;;;;;;5080008;28;20888;-35
2023/05/06 12:34:04;;;;;;;2.08;1.40;;;22.50;99.90;;;;;;5080117;28;20028;-37
2023/05/06 12:36:31;;;;;;;0.88;0.88;;;22.50;99.90;;;;;;5080155;28;20024;-34
2023/05/06 12:39:00;;;;;;;1.70;1.20;;;22.50;99.90;;;;;;5081719;28;20028;-33